createdAt,value
2022-11-15T00:01:08.175Z,116.43
2022-11-15T00:03:57.896Z,117.87
2022-11-15T00:06:49.928Z,109.33
2022-11-15T00:09:35.569Z,121.00
2022-11-15T00:12:21.323Z,143.90
2022-11-15T00:15:09.426Z,137.73
2022-11-15T00:18:15.045Z,155.63
2022-11-15T00:21:07.249Z,169.73
2022-11-15T00:24:24.727Z,130.97
2022-11-15T00:27:11.729Z,160.67
2022-11-15T00:29:57.450Z,168.47
2022-11-15T00:32:45.565Z,164.57
2022-11-15T00:35:50.627Z,169.70
2022-11-15T00:38:40.188Z,153.23
2022-11-15T00:42:08.493Z,205.40
2022-11-15T00:49:13.972Z,149.93
2022-11-15T00:56:18.813Z,157.20
2022-11-15T01:03:33.516Z,185.17
2022-11-15T01:10:27.423Z,188.70
2022-11-15T01:13:13.327Z,206.03
2022-11-15T01:16:19.542Z,153.73
2022-11-15T01:19:05.425Z,207.60
2022-11-15T01:21:52.775Z,236.23
2022-11-15T01:24:40.811Z,295.63
2022-11-15T01:27:30.614Z,313.67
2022-11-15T01:30:16.775Z,336.53
2022-11-15T01:33:07.710Z,358.00
2022-11-15T01:35:58.290Z,325.63
2022-11-15T01:39:04.080Z,291.63
2022-11-15T01:41:51.035Z,227.43
2022-11-15T01:45:02.173Z,329.27
2022-11-15T01:47:56.721Z,228.83
2022-11-15T01:51:23.540Z,190.87
2022-11-15T01:54:35.010Z,196.63
2022-11-15T01:57:44.196Z,338.33
2022-11-15T02:00:33.110Z,244.23
2022-11-15T02:03:53.127Z,306.27
2022-11-15T02:06:42.683Z,311.50
2022-11-15T02:09:53.121Z,250.23
2022-11-15T02:12:39.179Z,283.70
2022-11-15T02:15:48.040Z,332.63
2022-11-15T02:18:47.808Z,233.53
2022-11-15T02:22:11.128Z,313.97
2022-11-15T02:25:10.235Z,287.43
2022-11-15T02:28:24.750Z,307.50
2022-11-15T02:31:22.905Z,309.57
2022-11-15T02:35:08.415Z,319.67
2022-11-15T02:38:37.933Z,253.97
2022-11-15T02:41:53.402Z,403.73
2022-11-15T02:44:44.636Z,258.87
2022-11-15T02:47:45.425Z,171.90
2022-11-15T02:50:37.091Z,316.23
2022-11-15T02:53:30.195Z,215.17
2022-11-15T02:56:16.265Z,238.27
2022-11-15T02:59:36.178Z,354.00
2022-11-15T03:02:32.845Z,185.57
2022-11-15T03:05:55.178Z,174.40
2022-11-15T03:08:54.871Z,142.50
2022-11-15T03:11:54.761Z,135.03
2022-11-15T03:14:58.530Z,152.37
2022-11-15T03:18:13.931Z,159.67
2022-11-15T03:21:06.097Z,182.17
2022-11-15T03:24:24.668Z,195.47
2022-11-15T03:27:15.966Z,213.57
2022-11-15T03:30:05.427Z,223.13
2022-11-15T03:32:59.094Z,213.23
2022-11-15T03:36:00.771Z,191.30
2022-11-15T03:38:58.043Z,188.53
2022-11-15T03:42:26.824Z,219.07
2022-11-15T03:45:15.431Z,216.23
2022-11-15T03:48:20.511Z,235.47
2022-11-15T03:51:13.382Z,215.87
2022-11-15T03:54:10.507Z,191.73
2022-11-15T03:57:00.075Z,248.80
2022-11-15T04:00:08.958Z,264.20
2022-11-15T04:02:58.522Z,216.63
2022-11-15T04:06:18.467Z,141.07
2022-11-15T04:09:06.156Z,230.50
2022-11-15T04:12:31.808Z,224.43
2022-11-15T04:15:22.893Z,198.87
2022-11-15T04:18:27.301Z,200.63
2022-11-15T04:21:32.701Z,144.70
2022-11-15T04:24:33.155Z,216.53
2022-11-15T04:27:18.856Z,280.30
2022-11-15T04:30:17.206Z,181.03
2022-11-15T04:33:04.084Z,192.63
2022-11-15T04:36:11.897Z,209.27
2022-11-15T04:38:59.978Z,216.57
2022-11-15T04:41:52.018Z,171.00
2022-11-15T04:44:38.037Z,256.60
2022-11-15T04:47:32.203Z,249.47
2022-11-15T04:50:18.629Z,189.43
2022-11-15T04:53:14.570Z,176.33
2022-11-15T04:56:01.703Z,227.23
2022-11-15T04:58:52.694Z,229.17
2022-11-15T05:01:45.084Z,155.53
2022-11-15T05:04:31.033Z,203.30
2022-11-15T05:07:16.615Z,256.37
2022-11-15T05:10:10.057Z,249.93
2022-11-15T05:13:20.939Z,277.23
2022-11-15T05:16:22.087Z,313.27
2022-11-15T05:19:08.410Z,258.03
2022-11-15T05:21:54.416Z,304.90
2022-11-15T05:24:44.197Z,183.63
2022-11-15T05:27:30.166Z,201.50
2022-11-15T05:30:18.229Z,297.87
2022-11-15T05:33:25.082Z,260.77
2022-11-15T05:36:42.054Z,142.33
2022-11-15T05:39:41.909Z,241.30
2022-11-15T05:42:31.497Z,190.60
2022-11-15T05:45:27.757Z,177.20
2022-11-15T05:48:16.792Z,219.03
2022-11-15T05:51:04.172Z,263.60
2022-11-15T05:53:52.451Z,285.17
2022-11-15T05:56:56.982Z,235.63
2022-11-15T05:59:44.666Z,267.37
2022-11-15T06:02:52.294Z,252.50
2022-11-15T06:05:37.939Z,277.10
2022-11-15T06:08:33.180Z,206.53
2022-11-15T06:11:19.257Z,213.33
2022-11-15T06:14:10.298Z,182.50
2022-11-15T06:16:57.068Z,177.50
2022-11-15T06:19:55.120Z,249.63
2022-11-15T06:22:44.244Z,211.20
2022-11-15T06:25:34.273Z,205.10
2022-11-15T06:28:22.379Z,207.77
2022-11-15T06:31:12.393Z,125.03
2022-11-15T06:33:58.382Z,207.53
2022-11-15T06:36:44.186Z,164.53
2022-11-15T06:39:29.864Z,165.60
2022-11-15T06:42:17.924Z,211.23
2022-11-15T06:45:09.578Z,155.40
2022-11-15T06:47:55.175Z,172.87
2022-11-15T06:50:42.883Z,132.40
2022-11-15T06:53:39.212Z,139.43
2022-11-15T06:56:25.214Z,138.57
2022-11-15T06:59:12.118Z,134.53
2022-11-15T07:02:00.123Z,134.20
2022-11-15T07:04:52.191Z,135.27
2022-11-15T07:07:39.694Z,156.77
2022-11-15T07:10:29.696Z,160.67
2022-11-15T07:13:16.796Z,157.07
2022-11-15T07:16:17.694Z,129.87
2022-11-15T07:19:29.009Z,138.20
2022-11-15T07:22:47.141Z,183.03
2022-11-15T07:25:38.109Z,165.00
2022-11-15T07:29:04.695Z,147.20
2022-11-15T07:31:51.781Z,143.90
2022-11-15T07:34:41.175Z,130.00
2022-11-15T07:37:33.890Z,159.13
2022-11-15T07:40:47.701Z,151.90
2022-11-15T07:43:35.422Z,145.53
2022-11-15T07:46:22.330Z,128.37
2022-11-15T07:49:31.145Z,190.30
2022-11-15T07:52:17.955Z,193.67
2022-11-15T07:55:04.803Z,214.63
2022-11-15T07:57:51.817Z,161.00
2022-11-15T08:00:40.896Z,173.13
2022-11-15T08:03:27.536Z,182.37
2022-11-15T08:06:21.794Z,123.67
2022-11-15T08:09:07.726Z,128.77
2022-11-15T08:11:53.466Z,118.37
2022-11-15T08:14:39.797Z,114.93
2022-11-15T08:17:33.898Z,99.93
2022-11-15T08:20:20.761Z,108.50
2022-11-15T08:23:08.967Z,120.30
2022-11-15T08:26:00.803Z,98.03
2022-11-15T08:29:01.611Z,101.87
2022-11-15T08:31:48.440Z,96.37
2022-11-15T08:34:34.600Z,91.20
2022-11-15T08:37:21.752Z,83.90
2022-11-15T08:40:11.254Z,80.90
2022-11-15T08:42:59.830Z,81.60
2022-11-15T08:45:49.896Z,61.27
2022-11-15T08:48:37.634Z,70.20
2022-11-15T08:51:24.504Z,75.53
2022-11-15T08:54:10.255Z,78.93
2022-11-15T08:57:10.551Z,91.57
2022-11-15T08:59:57.415Z,85.93
2022-11-15T09:03:04.828Z,82.20
2022-11-15T09:05:56.703Z,87.90
2022-11-15T09:09:21.298Z,96.57
2022-11-15T09:12:33.127Z,80.13
2022-11-15T09:15:56.902Z,88.80
2022-11-15T09:18:46.262Z,91.83
2022-11-15T09:22:11.510Z,80.53
2022-11-15T09:24:59.496Z,81.77
2022-11-15T09:27:59.826Z,78.03
2022-11-15T09:30:45.756Z,77.60
2022-11-15T09:33:57.867Z,95.27
2022-11-15T09:36:43.700Z,77.47
2022-11-15T09:39:31.336Z,112.83
2022-11-15T09:42:52.728Z,92.57
2022-11-15T09:45:46.788Z,88.93
2022-11-15T09:48:35.480Z,86.00
2022-11-15T09:51:49.772Z,82.07
2022-11-15T09:54:55.832Z,81.50
2022-11-15T09:57:49.538Z,73.10
2022-11-15T10:00:49.782Z,84.40
2022-11-15T10:03:40.416Z,82.03
2022-11-15T10:06:24.145Z,77.53
2022-11-15T10:08:57.079Z,83.23
2022-11-15T10:11:39.235Z,74.90
2022-11-15T10:14:21.234Z,75.00
2022-11-15T10:17:17.640Z,77.83
2022-11-15T10:19:54.479Z,73.67
2022-11-15T10:22:52.128Z,66.57
2022-11-15T10:25:29.115Z,71.40
2022-11-15T10:28:02.801Z,65.43
2022-11-15T10:30:39.583Z,67.27
2022-11-15T10:33:38.121Z,67.33
2022-11-15T10:36:16.850Z,64.63
2022-11-15T10:38:51.070Z,66.63
2022-11-15T10:41:38.588Z,61.07
2022-11-15T10:44:24.477Z,63.23
2022-11-15T10:47:23.902Z,62.53
2022-11-15T10:50:05.616Z,64.60
2022-11-15T10:52:49.007Z,63.20
2022-11-15T10:55:45.086Z,65.03
2022-11-15T11:02:35.754Z,63.40
2022-11-15T11:05:38.153Z,63.40
2022-11-15T11:08:46.857Z,64.50
2022-11-15T11:11:18.294Z,66.60
2022-11-15T11:14:13.969Z,67.63
2022-11-15T11:17:36.840Z,68.40
2022-11-15T11:20:35.952Z,73.80
2022-11-15T11:23:42.128Z,73.87
2022-11-15T11:26:18.190Z,66.23
2022-11-15T11:29:04.334Z,70.60
2022-11-15T11:31:35.443Z,71.90
2022-11-15T11:34:32.917Z,71.93
2022-11-15T11:37:39.581Z,72.77
2022-11-15T11:40:17.323Z,71.07
2022-11-15T11:43:21.800Z,66.97
2022-11-15T11:46:04.114Z,72.70
2022-11-15T11:48:44.245Z,83.10
2022-11-15T11:52:01.872Z,75.00
2022-11-15T11:54:48.168Z,67.00
2022-11-15T11:57:58.304Z,69.60
2022-11-15T12:00:29.552Z,71.87
2022-11-15T12:03:25.554Z,66.43
2022-11-15T12:06:02.144Z,119.13
2022-11-15T12:08:49.222Z,102.90
2022-11-15T12:11:41.891Z,87.77
2022-11-15T12:14:26.410Z,76.67
2022-11-15T12:16:53.642Z,90.83
2022-11-15T12:19:21.674Z,84.40
2022-11-15T12:22:11.728Z,84.67
2022-11-15T12:24:46.960Z,80.63
2022-11-15T12:27:40.018Z,83.53
2022-11-15T12:30:20.956Z,91.03
2022-11-15T12:33:30.657Z,92.83
2022-11-15T12:36:13.767Z,86.63
2022-11-15T12:39:03.742Z,87.03
2022-11-15T12:41:38.071Z,94.40
2022-11-15T12:44:33.001Z,109.10
2022-11-15T12:47:23.395Z,123.00
2022-11-15T12:49:55.198Z,106.20
2022-11-15T12:52:23.458Z,108.60
2022-11-15T12:54:54.574Z,96.10
2022-11-15T12:57:41.025Z,83.77
2022-11-15T13:00:16.312Z,95.27
2022-11-15T13:02:48.472Z,92.03
2022-11-15T13:05:16.637Z,93.13
2022-11-15T13:07:45.412Z,88.93
2022-11-15T13:10:28.261Z,94.53
2022-11-15T13:13:02.450Z,90.60
2022-11-15T13:15:52.901Z,91.23
2022-11-15T13:18:34.363Z,98.60
2022-11-15T13:21:23.085Z,100.47
2022-11-15T13:23:56.584Z,94.20
2022-11-15T13:26:33.856Z,128.13
2022-11-15T13:29:01.789Z,117.20
2022-11-15T13:31:33.296Z,99.10
2022-11-15T13:37:31.263Z,85.53
2022-11-15T13:40:21.986Z,90.47
2022-11-15T13:42:52.618Z,86.30
2022-11-15T13:45:21.369Z,87.67
2022-11-15T13:47:54.732Z,87.90
2022-11-15T13:50:26.377Z,89.10
2022-11-15T13:52:58.827Z,91.10
2022-11-15T13:55:27.843Z,86.07
2022-11-15T13:58:00.918Z,85.27
2022-11-15T14:00:41.288Z,93.93
2022-11-15T14:03:16.690Z,91.30
2022-11-15T14:05:45.790Z,92.23
2022-11-15T14:08:25.566Z,88.37
2022-11-15T14:11:18.089Z,91.37
2022-11-15T14:14:08.509Z,88.37
2022-11-15T14:16:43.315Z,96.60
2022-11-15T14:19:50.038Z,99.73
2022-11-15T14:22:24.047Z,100.37
2022-11-15T14:25:14.098Z,103.90
2022-11-15T14:28:29.667Z,97.80
2022-11-15T14:30:59.553Z,99.63
2022-11-15T14:33:35.916Z,95.60
2022-11-15T14:36:14.967Z,94.03
2022-11-15T14:38:44.040Z,99.77
2022-11-15T14:41:25.980Z,102.50
2022-11-15T14:43:54.372Z,100.83
2022-11-15T14:46:24.525Z,145.87
2022-11-15T14:48:52.731Z,130.07
2022-11-15T14:51:20.990Z,122.60
2022-11-15T14:53:49.551Z,105.13
2022-11-15T14:56:17.834Z,100.70
2022-11-15T14:58:44.973Z,102.17
2022-11-15T15:01:25.013Z,104.67
2022-11-15T15:03:57.068Z,96.63
2022-11-15T15:06:26.353Z,91.90
2022-11-15T15:08:58.573Z,96.07
2022-11-15T15:11:29.486Z,100.30
2022-11-15T15:14:02.317Z,94.23
2022-11-15T15:16:31.868Z,94.93
2022-11-15T15:19:03.446Z,97.80
2022-11-15T15:21:37.184Z,98.73
2022-11-15T15:24:05.825Z,95.80
2022-11-15T15:26:37.763Z,97.50
2022-11-15T15:29:10.092Z,103.50
2022-11-15T15:31:38.299Z,109.37
2022-11-15T15:34:06.029Z,106.17
2022-11-15T15:36:33.293Z,99.17
2022-11-15T15:39:02.420Z,104.27
2022-11-15T15:41:29.695Z,102.63
2022-11-15T15:43:56.869Z,111.83
2022-11-15T15:46:30.150Z,105.93
2022-11-15T15:48:58.330Z,108.80
2022-11-15T15:51:25.477Z,106.47
2022-11-15T15:53:59.367Z,112.20
2022-11-15T15:56:26.701Z,100.60
2022-11-15T15:58:56.636Z,109.50
2022-11-15T16:01:29.985Z,114.93
2022-11-15T16:03:57.232Z,109.40
2022-11-15T16:06:54.065Z,108.97
2022-11-15T16:09:43.359Z,109.50
2022-11-15T16:12:17.556Z,107.60
2022-11-15T16:14:44.696Z,107.63
2022-11-15T16:17:24.297Z,110.13
2022-11-15T16:19:51.466Z,104.83
2022-11-15T16:22:18.621Z,103.47
2022-11-15T16:24:46.571Z,102.20
2022-11-15T16:27:22.777Z,100.87
2022-11-15T16:29:51.347Z,113.70
2022-11-15T16:32:18.480Z,104.57
2022-11-15T16:34:52.029Z,108.57
2022-11-15T16:37:26.095Z,107.50
2022-11-15T16:39:57.105Z,113.93
2022-11-15T16:42:29.178Z,117.20
2022-11-15T16:44:56.381Z,112.40
2022-11-15T16:47:36.738Z,118.10
2022-11-15T16:50:04.272Z,116.90
2022-11-15T16:53:03.049Z,116.10
2022-11-15T16:55:31.409Z,124.13
2022-11-15T16:58:09.828Z,125.57
2022-11-15T17:01:03.031Z,127.43
2022-11-15T17:03:32.137Z,116.37
2022-11-15T17:06:00.648Z,128.33
2022-11-15T17:08:28.771Z,119.70
2022-11-15T17:10:55.964Z,132.17
2022-11-15T17:13:23.211Z,129.37
2022-11-15T17:15:50.393Z,124.43
2022-11-15T17:18:17.649Z,127.97
2022-11-15T17:20:44.929Z,123.30
2022-11-15T17:23:17.761Z,131.47
2022-11-15T17:25:45.075Z,130.10
2022-11-15T17:28:12.345Z,113.83
2022-11-15T17:30:43.307Z,109.43
2022-11-15T17:33:12.691Z,105.73
2022-11-15T17:36:12.471Z,105.20
2022-11-15T17:38:44.119Z,103.43
2022-11-15T17:41:50.458Z,101.03
2022-11-15T17:44:17.673Z,94.60
2022-11-15T17:46:59.151Z,101.47
2022-11-15T17:49:27.347Z,90.53
2022-11-15T17:51:54.520Z,91.50
2022-11-15T17:54:22.781Z,79.70
2022-11-15T18:00:48.560Z,72.03
2022-11-15T18:03:16.798Z,68.83
2022-11-15T18:05:47.268Z,71.07
2022-11-15T18:08:24.068Z,68.33
2022-11-15T18:11:04.793Z,62.43
2022-11-15T18:13:33.644Z,65.97
2022-11-15T18:16:04.161Z,74.70
2022-11-15T18:18:34.330Z,71.03
2022-11-15T18:21:22.862Z,68.10
2022-11-15T18:23:55.839Z,70.60
2022-11-15T18:26:27.169Z,70.90
2022-11-15T18:28:58.760Z,70.97
2022-11-15T18:31:37.096Z,68.60
2022-11-15T18:34:06.084Z,67.90
2022-11-15T18:36:40.305Z,65.97
2022-11-15T18:39:16.564Z,64.63
2022-11-15T18:42:16.595Z,69.87
2022-11-15T18:44:44.823Z,70.73
2022-11-15T18:47:24.443Z,69.50
2022-11-15T18:49:53.862Z,64.17
2022-11-15T18:52:21.024Z,65.90
2022-11-15T18:54:51.330Z,65.83
2022-11-15T18:57:31.506Z,64.87
2022-11-15T18:59:58.744Z,71.30
2022-11-15T19:02:38.164Z,70.47
2022-11-15T19:05:06.913Z,71.03
2022-11-15T19:07:34.201Z,63.63
2022-11-15T19:10:05.862Z,68.70
2022-11-15T19:12:36.195Z,67.47
2022-11-15T19:15:10.293Z,64.97
2022-11-15T19:17:41.217Z,64.20
2022-11-15T19:20:45.258Z,77.00
2022-11-15T19:23:12.553Z,69.30
2022-11-15T19:25:39.768Z,62.17
2022-11-15T19:28:09.029Z,66.40
2022-11-15T19:31:08.066Z,64.67
2022-11-15T19:33:38.389Z,59.60
2022-11-15T19:36:13.443Z,61.03
2022-11-15T19:38:42.352Z,60.03
2022-11-15T19:41:15.954Z,59.03
2022-11-15T19:43:48.532Z,53.83
2022-11-15T19:46:22.110Z,51.83
2022-11-15T19:48:55.731Z,52.67
2022-11-15T19:51:26.550Z,52.60
2022-11-15T19:54:09.916Z,55.70
2022-11-15T19:56:38.307Z,51.67
2022-11-15T19:59:23.770Z,53.50
2022-11-15T20:01:51.080Z,52.67
2022-11-15T20:04:18.480Z,52.87
2022-11-15T20:06:47.246Z,49.87
2022-11-15T20:09:53.971Z,52.07
2022-11-15T20:12:21.281Z,53.73
2022-11-15T20:14:51.469Z,51.67
2022-11-15T20:17:19.034Z,50.30
2022-11-15T20:20:12.993Z,48.63
2022-11-15T20:22:59.958Z,47.87
2022-11-15T20:25:31.700Z,49.43
2022-11-15T20:27:58.987Z,47.93
2022-11-15T20:30:27.329Z,47.40
2022-11-15T20:32:58.653Z,49.93
2022-11-15T20:35:33.883Z,49.00
2022-11-15T20:38:07.803Z,53.97
2022-11-15T20:40:50.678Z,55.30
2022-11-15T20:43:20.623Z,56.13
2022-11-15T20:45:52.942Z,54.40
2022-11-15T20:48:21.564Z,60.80
2022-11-15T20:51:21.265Z,62.77
2022-11-15T20:53:49.477Z,66.03
2022-11-15T20:56:21.932Z,66.27
2022-11-15T20:58:50.800Z,64.10
2022-11-15T21:01:29.196Z,79.97
2022-11-15T21:04:00.142Z,73.93
2022-11-15T21:06:29.948Z,71.87
2022-11-15T21:09:17.296Z,72.57
2022-11-15T21:12:07.491Z,67.73
2022-11-15T21:14:35.272Z,76.00
2022-11-15T21:17:12.205Z,65.20
2022-11-15T21:19:39.480Z,65.03
2022-11-15T21:22:14.368Z,65.23
2022-11-15T21:24:42.955Z,64.03
2022-11-15T21:27:19.640Z,72.97
2022-11-15T21:29:50.599Z,77.77
2022-11-15T21:32:29.665Z,70.47
2022-11-15T21:35:01.316Z,74.53
2022-11-15T21:37:28.575Z,71.20
2022-11-15T21:40:00.752Z,71.20
2022-11-15T21:42:32.645Z,70.97
2022-11-15T21:44:59.841Z,73.17
2022-11-15T21:47:27.076Z,83.43
2022-11-15T21:50:17.111Z,73.20
2022-11-15T21:52:47.351Z,73.63
2022-11-15T21:55:18.662Z,74.93
2022-11-15T21:57:46.857Z,75.07
2022-11-15T22:00:49.584Z,70.30
2022-11-15T22:03:16.834Z,74.20
2022-11-15T22:05:50.166Z,70.73
2022-11-15T22:08:17.331Z,65.40
2022-11-15T22:10:50.870Z,71.20
2022-11-15T22:13:19.926Z,72.10
2022-11-15T22:15:48.483Z,67.80
2022-11-15T22:18:15.803Z,76.40
2022-11-15T22:21:07.066Z,61.90
2022-11-15T22:23:36.632Z,67.93
2022-11-15T22:26:04.902Z,72.67
2022-11-15T22:28:32.535Z,78.50
2022-11-15T22:31:06.770Z,77.47
2022-11-15T22:33:39.180Z,83.67
2022-11-15T22:36:07.544Z,95.27
2022-11-15T22:38:59.519Z,95.47
2022-11-15T22:41:27.797Z,86.73
2022-11-15T22:43:54.932Z,86.03
2022-11-15T22:46:23.222Z,99.83
2022-11-15T22:49:02.116Z,92.23
2022-11-15T22:51:32.757Z,92.83
2022-11-15T22:54:32.628Z,93.90
2022-11-15T22:57:02.293Z,111.27
2022-11-15T22:59:53.053Z,123.40
2022-11-15T23:02:21.330Z,126.57
2022-11-15T23:04:51.658Z,101.93
2022-11-15T23:07:20.196Z,88.80
2022-11-15T23:10:15.530Z,94.77
2022-11-15T23:13:03.861Z,98.57
2022-11-15T23:16:08.168Z,99.77
2022-11-15T23:18:41.922Z,100.17
2022-11-15T23:21:11.882Z,90.60
2022-11-15T23:23:39.338Z,83.50
2022-11-15T23:26:08.171Z,82.03
2022-11-15T23:28:36.516Z,97.50
2022-11-15T23:31:26.833Z,89.17
2022-11-15T23:33:59.721Z,98.23
2022-11-15T23:36:29.454Z,106.57
2022-11-15T23:38:58.761Z,101.87
2022-11-15T23:41:26.039Z,95.70
2022-11-15T23:43:59.406Z,98.10
2022-11-15T23:46:39.030Z,115.87
2022-11-15T23:49:14.059Z,105.67
2022-11-15T23:51:41.889Z,116.17
2022-11-15T23:54:12.341Z,132.97
2022-11-15T23:56:51.994Z,118.90
2022-11-15T23:59:19.255Z,140.63
